Easterwood Field
KCLL : now visible

Airfield :











YOU CAN JOIN US ON...

 
LOGIN :

Register | Disclaimer

   EN    FR    IT 

 









Legend :    VFR   Marginal VFR   IFR   Intensive IFR   Very Intensive IFR
Visi :
Ceiling :
>= 8 km
>= 3000ft
5 to 8 km
1000 to 3000 ft
1500m to 5 km
500 to 1000 ft
800 to 1500m
200 to 500 ft
< 800m
< 200 ft
Symbols :   Thunderstorms  Fog  Heavy snow  Heavy precipitations  Wind > 20 kt






- Airport Elevation : 320 ft
- IATA code : CLL


KCLL - Easterwood Field

CURRENT METAR :
  • 110453Z AUTO 33004KT 9SM OVC006 22/19 A2998 RMK AO2 SLP148 T02170194

EXPIRED METARs :
  • 110353Z AUTO 36005KT 8SM OVC005 21/19 A2994 RMK AO2 SLP133 T02110194
  • 110330Z AUTO 32005KT 7SM OVC005 21/19 A2995 RMK AO2 T02110194
  • 110253Z AUTO 33006KT 5SM BR OVC004 21/19 A2994 RMK AO2 SLP134 T02110194 51025

TAF KCLL
Valid from the 11 at 02:00 until the 12 at 00:00 UTC


110157Z 1102/1124 35010KT P6SM VCSH SCT010 BKN060
TEMPO 1102/1105 4SM BR BKN004
FM110600 04008KT 5SM BR BKN010 BKN025
FM111600 VRB06KT P6SM VCSH SCT010 BKN020
FM111900 01007KT P6SM VCTS SCT025 BKN040CB BKN060
KZHU FIR / North America



MET'MAP, your aeronautical weather chart ! - Copyright ORBIFLY December 2007 - Disclaimer

ORBIFLY MET'MAP TEAM :

Programming & Development : Alexandra Zaïnal
Concept & original design : Baudouin d'Aumeries
Assistance for programming : Marc-Olivier Méhu
Technical & hardware support : Manuel Goepfert

Contact : metmap@orbifly.com




SOURCES & CREDITS :

   NOAA       Earth
Advisory